createdAt,value
2018-12-19T17:04:30.302Z,17.20
2018-12-19T17:09:32.579Z,19.60
2018-12-19T17:14:34.875Z,23.93
2018-12-19T17:19:37.056Z,19.50
2018-12-19T17:24:39.604Z,20.23
2018-12-19T17:29:41.890Z,23.23
2018-12-19T17:34:44.169Z,43.83
2018-12-19T17:39:46.348Z,34.17
2018-12-19T17:44:48.508Z,26.10
2018-12-19T17:49:50.791Z,26.60
2018-12-19T17:54:53.104Z,22.37
2018-12-19T17:59:55.268Z,33.50
2018-12-19T18:04:57.592Z,23.40
2018-12-19T18:10:00.321Z,22.97
2018-12-19T18:15:02.801Z,24.97
2018-12-19T18:20:06.160Z,27.90
2018-12-19T18:25:09.581Z,28.60
2018-12-19T18:30:12.136Z,31.10
2018-12-19T18:35:14.440Z,37.17
2018-12-19T18:40:16.732Z,35.90
2018-12-19T18:45:19.120Z,37.10
2018-12-19T18:50:22.412Z,35.90
2018-12-19T18:55:24.733Z,36.00
2018-12-19T19:00:35.465Z,40.43
2018-12-19T19:05:38.672Z,42.67
2018-12-19T19:10:41.048Z,35.80
2018-12-19T19:15:43.357Z,35.33
2018-12-19T19:20:45.552Z,31.97
2018-12-19T19:25:48.412Z,37.67
2018-12-19T19:30:50.760Z,38.70
2018-12-19T19:35:53.050Z,45.90
2018-12-19T19:40:55.364Z,39.60
2018-12-19T19:45:58.728Z,45.80
2018-12-19T19:51:01.061Z,41.13
2018-12-19T19:56:03.448Z,47.97
2018-12-19T20:01:05.738Z,47.00
2018-12-19T20:06:07.917Z,38.40
2018-12-19T20:11:10.256Z,34.80
2018-12-19T20:16:12.584Z,37.70
2018-12-19T20:21:14.832Z,32.50
2018-12-19T20:26:17.059Z,29.30
2018-12-19T20:31:19.237Z,26.93
2018-12-19T20:36:21.540Z,25.30
2018-12-19T20:41:24.132Z,29.77
2018-12-19T20:46:26.412Z,27.27
2018-12-19T20:51:28.628Z,23.20
2018-12-19T20:56:31.032Z,23.13
2018-12-19T21:01:33.485Z,27.07
2018-12-19T21:06:35.996Z,20.50
2018-12-19T21:11:38.340Z,29.07
2018-12-19T21:16:46.553Z,17.90
